sensor_id;sensor_type;location;lat;lon;timestamp;temperature;humidity
34542;DHT22;20784;51.332;12.410;2023-11-18T00:02:05;6.00;99.90
34542;DHT22;20784;51.332;12.410;2023-11-18T00:04:46;6.10;99.90
34542;DHT22;20784;51.332;12.410;2023-11-18T00:07:22;6.10;99.90
34542;DHT22;20784;51.332;12.410;2023-11-18T00:10:00;6.10;99.90
34542;DHT22;20784;51.332;12.410;2023-11-18T00:12:37;6.20;99.90
34542;DHT22;20784;51.332;12.410;2023-11-18T00:15:07;6.10;99.90
34542;DHT22;20784;51.332;12.410;2023-11-18T00:18:08;6.10;99.90
34542;DHT22;20784;51.332;12.410;2023-11-18T00:23:37;6.00;99.90
34542;DHT22;20784;51.332;12.410;2023-11-18T00:26:08;6.00;99.90
34542;DHT22;20784;51.332;12.410;2023-11-18T00:28:38;6.00;99.90
34542;DHT22;20784;51.332;12.410;2023-11-18T00:31:24;6.00;99.90
34542;DHT22;20784;51.332;12.410;2023-11-18T00:34:00;6.00;99.90
34542;DHT22;20784;51.332;12.410;2023-11-18T00:36:36;6.10;99.90
34542;DHT22;20784;51.332;12.410;2023-11-18T00:39:13;6.00;99.90
34542;DHT22;20784;51.332;12.410;2023-11-18T00:41:38;6.00;99.90
34542;DHT22;20784;51.332;12.410;2023-11-18T00:44:07;6.00;99.90
34542;DHT22;20784;51.332;12.410;2023-11-18T00:46:34;6.00;99.90
34542;DHT22;20784;51.332;12.410;2023-11-18T00:49:07;6.00;99.90
34542;DHT22;20784;51.332;12.410;2023-11-18T00:51:35;5.90;99.90
34542;DHT22;20784;51.332;12.410;2023-11-18T00:56:44;5.80;99.90
34542;DHT22;20784;51.332;12.410;2023-11-18T00:59:22;5.70;99.90
34542;DHT22;20784;51.332;12.410;2023-11-18T01:01:48;5.70;99.90
34542;DHT22;20784;51.332;12.410;2023-11-18T01:04:19;5.80;99.90
34542;DHT22;20784;51.332;12.410;2023-11-18T01:06:50;5.80;99.90
34542;DHT22;20784;51.332;12.410;2023-11-18T01:09:29;5.80;99.90
34542;DHT22;20784;51.332;12.410;2023-11-18T01:12:11;5.80;99.90
34542;DHT22;20784;51.332;12.410;2023-11-18T01:14:51;5.70;99.90
34542;DHT22;20784;51.332;12.410;2023-11-18T01:17:25;5.70;99.90
34542;DHT22;20784;51.332;12.410;2023-11-18T01:20:01;5.70;99.90
34542;DHT22;20784;51.332;12.410;2023-11-18T01:22:39;5.60;99.90
34542;DHT22;20784;51.332;12.410;2023-11-18T01:28:43;5.50;99.90
34542;DHT22;20784;51.332;12.410;2023-11-18T01:34:25;5.30;99.90
34542;DHT22;20784;51.332;12.410;2023-11-18T01:36:56;5.40;99.90
34542;DHT22;20784;51.332;12.410;2023-11-18T01:39:34;5.30;99.90
34542;DHT22;20784;51.332;12.410;2023-11-18T01:42:09;5.30;99.90
34542;DHT22;20784;51.332;12.410;2023-11-18T01:44:38;5.30;99.90
34542;DHT22;20784;51.332;12.410;2023-11-18T01:47:10;5.20;99.90
34542;DHT22;20784;51.332;12.410;2023-11-18T01:49:44;5.20;99.90
34542;DHT22;20784;51.332;12.410;2023-11-18T01:52:10;5.10;99.90
34542;DHT22;20784;51.332;12.410;2023-11-18T01:54:47;5.10;99.90
34542;DHT22;20784;51.332;12.410;2023-11-18T01:57:14;5.00;99.90
34542;DHT22;20784;51.332;12.410;2023-11-18T01:59:43;4.90;99.90
34542;DHT22;20784;51.332;12.410;2023-11-18T02:02:09;4.90;99.90
34542;DHT22;20784;51.332;12.410;2023-11-18T02:04:40;4.80;99.90
34542;DHT22;20784;51.332;12.410;2023-11-18T02:07:06;4.70;99.90
34542;DHT22;20784;51.332;12.410;2023-11-18T02:09:44;4.70;99.90
34542;DHT22;20784;51.332;12.410;2023-11-18T02:12:23;4.70;99.90
34542;DHT22;20784;51.332;12.410;2023-11-18T02:14:53;4.60;99.90
34542;DHT22;20784;51.332;12.410;2023-11-18T02:17:22;4.60;99.90
34542;DHT22;20784;51.332;12.410;2023-11-18T02:19:55;4.50;99.90
34542;DHT22;20784;51.332;12.410;2023-11-18T02:22:46;4.50;99.90
34542;DHT22;20784;51.332;12.410;2023-11-18T02:25:24;4.50;99.90
34542;DHT22;20784;51.332;12.410;2023-11-18T02:28:06;4.60;99.90
34542;DHT22;20784;51.332;12.410;2023-11-18T02:30:34;4.50;99.90
34542;DHT22;20784;51.332;12.410;2023-11-18T02:36:41;4.50;99.90
34542;DHT22;20784;51.332;12.410;2023-11-18T02:39:25;4.50;99.90
34542;DHT22;20784;51.332;12.410;2023-11-18T02:42:03;4.50;99.90
34542;DHT22;20784;51.332;12.410;2023-11-18T02:44:37;4.50;99.90
34542;DHT22;20784;51.332;12.410;2023-11-18T02:47:15;4.60;99.90
34542;DHT22;20784;51.332;12.410;2023-11-18T02:49:54;4.50;99.90
34542;DHT22;20784;51.332;12.410;2023-11-18T02:52:32;4.50;99.90
34542;DHT22;20784;51.332;12.410;2023-11-18T02:55:00;4.50;99.90
34542;DHT22;20784;51.332;12.410;2023-11-18T02:57:26;4.50;99.90
34542;DHT22;20784;51.332;12.410;2023-11-18T02:59:57;4.50;99.90
34542;DHT22;20784;51.332;12.410;2023-11-18T03:02:31;4.50;99.90
34542;DHT22;20784;51.332;12.410;2023-11-18T03:07:55;4.50;99.90
34542;DHT22;20784;51.332;12.410;2023-11-18T03:10:49;4.50;99.90
34542;DHT22;20784;51.332;12.410;2023-11-18T03:16:24;4.50;99.90
34542;DHT22;20784;51.332;12.410;2023-11-18T03:18:56;4.60;99.90
34542;DHT22;20784;51.332;12.410;2023-11-18T03:21:23;4.60;99.90
34542;DHT22;20784;51.332;12.410;2023-11-18T03:23:49;4.60;99.90
34542;DHT22;20784;51.332;12.410;2023-11-18T03:26:24;4.70;99.90
34542;DHT22;20784;51.332;12.410;2023-11-18T03:28:53;4.60;99.90
34542;DHT22;20784;51.332;12.410;2023-11-18T03:31:22;4.70;99.90
34542;DHT22;20784;51.332;12.410;2023-11-18T03:33:47;4.70;99.90
34542;DHT22;20784;51.332;12.410;2023-11-18T03:36:15;4.80;99.90
34542;DHT22;20784;51.332;12.410;2023-11-18T03:38:43;4.80;99.90
34542;DHT22;20784;51.332;12.410;2023-11-18T03:41:09;4.90;99.90
34542;DHT22;20784;51.332;12.410;2023-11-18T03:43:43;4.90;99.90
34542;DHT22;20784;51.332;12.410;2023-11-18T03:46:18;4.90;99.90
34542;DHT22;20784;51.332;12.410;2023-11-18T03:48:48;5.10;99.90
34542;DHT22;20784;51.332;12.410;2023-11-18T03:51:16;5.00;99.90
34542;DHT22;20784;51.332;12.410;2023-11-18T03:53:55;5.10;99.90
34542;DHT22;20784;51.332;12.410;2023-11-18T03:56:23;5.10;99.90
34542;DHT22;20784;51.332;12.410;2023-11-18T03:58:52;5.20;99.90
34542;DHT22;20784;51.332;12.410;2023-11-18T04:01:22;5.20;99.90
34542;DHT22;20784;51.332;12.410;2023-11-18T04:03:56;5.30;99.90
34542;DHT22;20784;51.332;12.410;2023-11-18T04:06:22;5.30;99.90
34542;DHT22;20784;51.332;12.410;2023-11-18T04:08:50;5.30;99.90
34542;DHT22;20784;51.332;12.410;2023-11-18T04:11:16;5.30;99.90
34542;DHT22;20784;51.332;12.410;2023-11-18T04:13:42;5.40;99.90
34542;DHT22;20784;51.332;12.410;2023-11-18T04:16:17;5.30;99.90
34542;DHT22;20784;51.332;12.410;2023-11-18T04:18:45;5.40;99.90
34542;DHT22;20784;51.332;12.410;2023-11-18T04:21:16;5.40;99.90
34542;DHT22;20784;51.332;12.410;2023-11-18T04:23:43;5.40;99.90
34542;DHT22;20784;51.332;12.410;2023-11-18T04:26:09;5.40;99.90
34542;DHT22;20784;51.332;12.410;2023-11-18T04:28:35;5.40;99.90
34542;DHT22;20784;51.332;12.410;2023-11-18T04:31:01;5.60;99.90
34542;DHT22;20784;51.332;12.410;2023-11-18T04:33:28;5.40;99.90
34542;DHT22;20784;51.332;12.410;2023-11-18T04:35:54;5.40;99.90
34542;DHT22;20784;51.332;12.410;2023-11-18T04:38:23;5.50;99.90
34542;DHT22;20784;51.332;12.410;2023-11-18T04:40:54;5.50;99.90
34542;DHT22;20784;51.332;12.410;2023-11-18T04:43:23;5.50;99.90
34542;DHT22;20784;51.332;12.410;2023-11-18T04:45:49;5.50;99.90
34542;DHT22;20784;51.332;12.410;2023-11-18T04:48:15;5.50;99.90
34542;DHT22;20784;51.332;12.410;2023-11-18T04:50:44;5.50;99.90
34542;DHT22;20784;51.332;12.410;2023-11-18T04:53:09;5.50;99.90
34542;DHT22;20784;51.332;12.410;2023-11-18T04:55:43;5.50;99.90
34542;DHT22;20784;51.332;12.410;2023-11-18T04:58:13;5.50;99.90
34542;DHT22;20784;51.332;12.410;2023-11-18T05:00:44;5.50;99.90
34542;DHT22;20784;51.332;12.410;2023-11-18T05:03:13;5.50;99.90
34542;DHT22;20784;51.332;12.410;2023-11-18T05:05:41;5.50;99.90
34542;DHT22;20784;51.332;12.410;2023-11-18T05:08:33;5.50;99.90
34542;DHT22;20784;51.332;12.410;2023-11-18T05:10:59;5.60;99.90
34542;DHT22;20784;51.332;12.410;2023-11-18T05:13:45;5.60;99.90
34542;DHT22;20784;51.332;12.410;2023-11-18T05:16:23;5.60;99.90
34542;DHT22;20784;51.332;12.410;2023-11-18T05:18:52;5.60;99.90
34542;DHT22;20784;51.332;12.410;2023-11-18T05:21:18;5.60;99.90
34542;DHT22;20784;51.332;12.410;2023-11-18T05:23:44;5.60;99.90
34542;DHT22;20784;51.332;12.410;2023-11-18T05:26:10;5.70;99.90
34542;DHT22;20784;51.332;12.410;2023-11-18T05:28:35;5.60;99.90
34542;DHT22;20784;51.332;12.410;2023-11-18T05:31:01;5.60;99.90
34542;DHT22;20784;51.332;12.410;2023-11-18T05:33:29;5.60;99.90
34542;DHT22;20784;51.332;12.410;2023-11-18T05:35:55;5.70;99.90
34542;DHT22;20784;51.332;12.410;2023-11-18T05:38:24;5.70;99.90
34542;DHT22;20784;51.332;12.410;2023-11-18T05:40:53;5.70;99.90
34542;DHT22;20784;51.332;12.410;2023-11-18T05:43:30;5.70;99.90
34542;DHT22;20784;51.332;12.410;2023-11-18T05:46:02;5.70;99.90
34542;DHT22;20784;51.332;12.410;2023-11-18T05:48:47;5.70;99.90
34542;DHT22;20784;51.332;12.410;2023-11-18T05:51:12;5.70;99.90
34542;DHT22;20784;51.332;12.410;2023-11-18T05:53:42;5.70;99.90
34542;DHT22;20784;51.332;12.410;2023-11-18T05:56:12;5.70;99.90
34542;DHT22;20784;51.332;12.410;2023-11-18T05:58:40;5.80;99.90
34542;DHT22;20784;51.332;12.410;2023-11-18T06:01:06;5.80;99.90
34542;DHT22;20784;51.332;12.410;2023-11-18T06:03:37;5.80;99.90
34542;DHT22;20784;51.332;12.410;2023-11-18T06:06:11;5.90;99.90
34542;DHT22;20784;51.332;12.410;2023-11-18T06:08:39;5.80;99.90
34542;DHT22;20784;51.332;12.410;2023-11-18T06:11:13;5.90;99.90
34542;DHT22;20784;51.332;12.410;2023-11-18T06:13:43;5.80;99.90
34542;DHT22;20784;51.332;12.410;2023-11-18T06:16:13;5.80;99.90
34542;DHT22;20784;51.332;12.410;2023-11-18T06:18:43;5.80;99.90
34542;DHT22;20784;51.332;12.410;2023-11-18T06:21:19;5.80;99.90
34542;DHT22;20784;51.332;12.410;2023-11-18T06:23:47;5.90;99.90
34542;DHT22;20784;51.332;12.410;2023-11-18T06:26:14;5.90;99.90
34542;DHT22;20784;51.332;12.410;2023-11-18T06:28:44;5.80;99.90
34542;DHT22;20784;51.332;12.410;2023-11-18T06:31:19;5.70;99.90
34542;DHT22;20784;51.332;12.410;2023-11-18T06:33:47;5.70;99.90
34542;DHT22;20784;51.332;12.410;2023-11-18T06:38:45;5.80;99.90
34542;DHT22;20784;51.332;12.410;2023-11-18T06:41:14;5.70;99.90
34542;DHT22;20784;51.332;12.410;2023-11-18T06:43:43;5.80;99.90
34542;DHT22;20784;51.332;12.410;2023-11-18T06:46:27;5.70;99.90
34542;DHT22;20784;51.332;12.410;2023-11-18T06:49:01;5.70;99.90
34542;DHT22;20784;51.332;12.410;2023-11-18T06:51:32;5.80;99.90
34542;DHT22;20784;51.332;12.410;2023-11-18T06:54:00;5.70;99.90
34542;DHT22;20784;51.332;12.410;2023-11-18T06:56:28;5.90;99.90
34542;DHT22;20784;51.332;12.410;2023-11-18T06:58:54;5.80;99.90
34542;DHT22;20784;51.332;12.410;2023-11-18T07:01:23;5.90;99.90
34542;DHT22;20784;51.332;12.410;2023-11-18T07:03:49;5.90;99.90
34542;DHT22;20784;51.332;12.410;2023-11-18T07:06:18;5.90;99.90
34542;DHT22;20784;51.332;12.410;2023-11-18T07:08:51;5.90;99.90
34542;DHT22;20784;51.332;12.410;2023-11-18T07:11:20;5.80;99.90
34542;DHT22;20784;51.332;12.410;2023-11-18T07:13:47;5.80;99.90
34542;DHT22;20784;51.332;12.410;2023-11-18T07:16:14;5.80;99.90
34542;DHT22;20784;51.332;12.410;2023-11-18T07:18:41;5.70;99.90
34542;DHT22;20784;51.332;12.410;2023-11-18T07:21:12;5.80;99.90
34542;DHT22;20784;51.332;12.410;2023-11-18T07:23:39;5.70;99.90
34542;DHT22;20784;51.332;12.410;2023-11-18T07:26:05;5.80;99.90
34542;DHT22;20784;51.332;12.410;2023-11-18T07:28:31;5.80;99.90
34542;DHT22;20784;51.332;12.410;2023-11-18T07:31:02;5.80;99.90
34542;DHT22;20784;51.332;12.410;2023-11-18T07:33:42;5.80;99.90
34542;DHT22;20784;51.332;12.410;2023-11-18T07:36:18;5.90;99.90
34542;DHT22;20784;51.332;12.410;2023-11-18T07:38:50;5.80;99.90
34542;DHT22;20784;51.332;12.410;2023-11-18T07:41:16;5.70;99.90
34542;DHT22;20784;51.332;12.410;2023-11-18T07:44:11;5.70;99.90
34542;DHT22;20784;51.332;12.410;2023-11-18T07:46:38;5.70;99.90
34542;DHT22;20784;51.332;12.410;2023-11-18T07:49:25;5.70;99.90
34542;DHT22;20784;51.332;12.410;2023-11-18T07:52:39;5.90;99.90
34542;DHT22;20784;51.332;12.410;2023-11-18T07:55:24;5.90;99.90
34542;DHT22;20784;51.332;12.410;2023-11-18T07:57:49;5.90;99.90
34542;DHT22;20784;51.332;12.410;2023-11-18T08:00:15;5.90;99.90
34542;DHT22;20784;51.332;12.410;2023-11-18T08:02:43;6.10;99.90
34542;DHT22;20784;51.332;12.410;2023-11-18T08:05:12;6.20;99.90
34542;DHT22;20784;51.332;12.410;2023-11-18T08:07:43;6.20;99.90
34542;DHT22;20784;51.332;12.410;2023-11-18T08:10:10;6.30;99.90
34542;DHT22;20784;51.332;12.410;2023-11-18T08:12:44;6.30;99.90
34542;DHT22;20784;51.332;12.410;2023-11-18T08:15:10;6.40;99.90
34542;DHT22;20784;51.332;12.410;2023-11-18T08:17:38;6.50;99.90
34542;DHT22;20784;51.332;12.410;2023-11-18T08:20:04;6.70;99.90
34542;DHT22;20784;51.332;12.410;2023-11-18T08:22:48;7.00;99.90
34542;DHT22;20784;51.332;12.410;2023-11-18T08:25:14;7.40;99.90
34542;DHT22;20784;51.332;12.410;2023-11-18T08:30:37;8.00;99.90
34542;DHT22;20784;51.332;12.410;2023-11-18T08:33:06;8.30;99.90
34542;DHT22;20784;51.332;12.410;2023-11-18T08:35:44;8.70;99.90
34542;DHT22;20784;51.332;12.410;2023-11-18T08:38:09;9.20;99.90
34542;DHT22;20784;51.332;12.410;2023-11-18T08:40:45;9.80;99.90
34542;DHT22;20784;51.332;12.410;2023-11-18T08:43:16;10.40;99.90
34542;DHT22;20784;51.332;12.410;2023-11-18T08:45:45;10.60;99.90
34542;DHT22;20784;51.332;12.410;2023-11-18T08:48:18;10.70;99.90
34542;DHT22;20784;51.332;12.410;2023-11-18T08:50:49;10.60;99.90
34542;DHT22;20784;51.332;12.410;2023-11-18T08:53:17;11.00;99.90
34542;DHT22;20784;51.332;12.410;2023-11-18T08:55:49;11.50;99.90
34542;DHT22;20784;51.332;12.410;2023-11-18T08:58:19;11.80;99.90
34542;DHT22;20784;51.332;12.410;2023-11-18T09:00:50;12.20;99.90
34542;DHT22;20784;51.332;12.410;2023-11-18T09:03:30;12.40;99.90
34542;DHT22;20784;51.332;12.410;2023-11-18T09:06:09;12.80;99.90
34542;DHT22;20784;51.332;12.410;2023-11-18T09:08:53;12.60;99.90
34542;DHT22;20784;51.332;12.410;2023-11-18T09:11:21;12.50;99.90
34542;DHT22;20784;51.332;12.410;2023-11-18T09:13:48;12.30;99.90
34542;DHT22;20784;51.332;12.410;2023-11-18T09:16:17;12.00;99.90
34542;DHT22;20784;51.332;12.410;2023-11-18T09:18:55;11.60;99.90
34542;DHT22;20784;51.332;12.410;2023-11-18T09:21:23;11.20;99.90
34542;DHT22;20784;51.332;12.410;2023-11-18T09:23:52;11.30;99.90
34542;DHT22;20784;51.332;12.410;2023-11-18T09:26:21;11.00;99.90
34542;DHT22;20784;51.332;12.410;2023-11-18T09:28:52;10.90;99.90
34542;DHT22;20784;51.332;12.410;2023-11-18T09:31:20;11.50;99.90
34542;DHT22;20784;51.332;12.410;2023-11-18T09:33:48;13.00;99.90
34542;DHT22;20784;51.332;12.410;2023-11-18T09:36:22;15.60;99.90
34542;DHT22;20784;51.332;12.410;2023-11-18T09:38:48;16.60;99.90
34542;DHT22;20784;51.332;12.410;2023-11-18T09:41:15;16.10;99.90
34542;DHT22;20784;51.332;12.410;2023-11-18T09:43:43;15.40;99.90
34542;DHT22;20784;51.332;12.410;2023-11-18T09:46:15;14.40;99.90
34542;DHT22;20784;51.332;12.410;2023-11-18T09:48:49;13.60;99.90
34542;DHT22;20784;51.332;12.410;2023-11-18T09:51:24;12.70;99.90
34542;DHT22;20784;51.332;12.410;2023-11-18T09:53:51;12.20;99.90
34542;DHT22;20784;51.332;12.410;2023-11-18T09:59:23;11.30;99.90
34542;DHT22;20784;51.332;12.410;2023-11-18T10:01:51;10.80;99.90
34542;DHT22;20784;51.332;12.410;2023-11-18T10:04:20;10.50;99.90
34542;DHT22;20784;51.332;12.410;2023-11-18T10:06:46;10.90;99.90
34542;DHT22;20784;51.332;12.410;2023-11-18T10:09:18;11.10;99.90
34542;DHT22;20784;51.332;12.410;2023-11-18T10:11:54;12.00;99.90
34542;DHT22;20784;51.332;12.410;2023-11-18T10:14:36;13.40;99.90
34542;DHT22;20784;51.332;12.410;2023-11-18T10:17:06;14.20;99.90
34542;DHT22;20784;51.332;12.410;2023-11-18T10:19:51;14.80;99.90
34542;DHT22;20784;51.332;12.410;2023-11-18T10:22:25;15.00;99.90
34542;DHT22;20784;51.332;12.410;2023-11-18T10:24:53;15.60;99.90
34542;DHT22;20784;51.332;12.410;2023-11-18T10:27:29;16.70;99.90
34542;DHT22;20784;51.332;12.410;2023-11-18T10:29:58;16.90;99.90
34542;DHT22;20784;51.332;12.410;2023-11-18T10:32:27;16.50;99.90
34542;DHT22;20784;51.332;12.410;2023-11-18T10:35:04;16.00;99.90
34542;DHT22;20784;51.332;12.410;2023-11-18T10:37:35;16.40;99.90
34542;DHT22;20784;51.332;12.410;2023-11-18T10:40:08;17.10;99.90
34542;DHT22;20784;51.332;12.410;2023-11-18T10:42:33;17.90;99.90
34542;DHT22;20784;51.332;12.410;2023-11-18T10:44:59;17.60;99.90
34542;DHT22;20784;51.332;12.410;2023-11-18T10:47:32;16.50;99.90
34542;DHT22;20784;51.332;12.410;2023-11-18T10:49:57;15.20;99.90
34542;DHT22;20784;51.332;12.410;2023-11-18T10:52:27;14.50;99.90
34542;DHT22;20784;51.332;12.410;2023-11-18T10:55:00;15.40;99.90
34542;DHT22;20784;51.332;12.410;2023-11-18T10:57:38;16.40;99.90
34542;DHT22;20784;51.332;12.410;2023-11-18T11:00:08;17.80;99.90
34542;DHT22;20784;51.332;12.410;2023-11-18T11:02:40;19.80;99.90
34542;DHT22;20784;51.332;12.410;2023-11-18T11:05:10;20.80;99.70
34542;DHT22;20784;51.332;12.410;2023-11-18T11:07:45;21.60;97.50
34542;DHT22;20784;51.332;12.410;2023-11-18T11:10:14;22.80;93.20
34542;DHT22;20784;51.332;12.410;2023-11-18T11:12:54;23.70;88.60
34542;DHT22;20784;51.332;12.410;2023-11-18T11:15:26;22.90;86.00
34542;DHT22;20784;51.332;12.410;2023-11-18T11:18:04;21.60;88.50
34542;DHT22;20784;51.332;12.410;2023-11-18T11:20:37;20.00;91.30
34542;DHT22;20784;51.332;12.410;2023-11-18T11:23:14;18.40;95.00
34542;DHT22;20784;51.332;12.410;2023-11-18T11:32:28;14.30;99.90
34542;DHT22;20784;51.332;12.410;2023-11-18T11:34:59;13.20;99.90
34542;DHT22;20784;51.332;12.410;2023-11-18T11:37:32;12.70;99.90
34542;DHT22;20784;51.332;12.410;2023-11-18T11:40:00;12.10;99.90
34542;DHT22;20784;51.332;12.410;2023-11-18T11:42:31;11.50;99.90
34542;DHT22;20784;51.332;12.410;2023-11-18T11:44:57;11.10;99.90
34542;DHT22;20784;51.332;12.410;2023-11-18T11:47:26;10.90;99.90
34542;DHT22;20784;51.332;12.410;2023-11-18T11:50:09;10.80;99.90
34542;DHT22;20784;51.332;12.410;2023-11-18T11:52:44;10.60;99.90
34542;DHT22;20784;51.332;12.410;2023-11-18T11:55:49;10.70;99.90
34542;DHT22;20784;51.332;12.410;2023-11-18T11:58:32;10.40;99.90
34542;DHT22;20784;51.332;12.410;2023-11-18T12:04:04;10.10;99.90
34542;DHT22;20784;51.332;12.410;2023-11-18T12:06:42;10.10;99.90
34542;DHT22;20784;51.332;12.410;2023-11-18T12:09:10;10.00;99.90
34542;DHT22;20784;51.332;12.410;2023-11-18T12:11:39;10.10;99.90
34542;DHT22;20784;51.332;12.410;2023-11-18T12:14:10;10.50;99.90
34542;DHT22;20784;51.332;12.410;2023-11-18T12:17:07;11.30;99.90
34542;DHT22;20784;51.332;12.410;2023-11-18T12:19:39;12.30;99.90
34542;DHT22;20784;51.332;12.410;2023-11-18T12:22:22;12.80;99.90
34542;DHT22;20784;51.332;12.410;2023-11-18T12:27:42;13.20;99.90
34542;DHT22;20784;51.332;12.410;2023-11-18T12:33:05;12.90;99.90
34542;DHT22;20784;51.332;12.410;2023-11-18T12:35:57;12.60;99.90
34542;DHT22;20784;51.332;12.410;2023-11-18T12:39:01;12.20;99.90
34542;DHT22;20784;51.332;12.410;2023-11-18T12:41:38;11.60;99.90
34542;DHT22;20784;51.332;12.410;2023-11-18T12:46:59;11.30;99.90
34542;DHT22;20784;51.332;12.410;2023-11-18T12:49:45;11.20;99.90
34542;DHT22;20784;51.332;12.410;2023-11-18T12:52:18;11.00;99.90
34542;DHT22;20784;51.332;12.410;2023-11-18T12:54:48;10.80;99.90
34542;DHT22;20784;51.332;12.410;2023-11-18T12:57:20;10.70;99.90
34542;DHT22;20784;51.332;12.410;2023-11-18T12:59:48;10.70;99.90
34542;DHT22;20784;51.332;12.410;2023-11-18T13:02:18;10.70;99.90
34542;DHT22;20784;51.332;12.410;2023-11-18T13:04:45;10.60;99.90
34542;DHT22;20784;51.332;12.410;2023-11-18T13:07:19;10.50;99.90
34542;DHT22;20784;51.332;12.410;2023-11-18T13:13:11;10.40;99.90
34542;DHT22;20784;51.332;12.410;2023-11-18T13:15:39;9.80;99.90
34542;DHT22;20784;51.332;12.410;2023-11-18T13:18:05;9.90;99.90
34542;DHT22;20784;51.332;12.410;2023-11-18T13:20:35;9.70;99.90
34542;DHT22;20784;51.332;12.410;2023-11-18T13:23:08;9.90;99.90
34542;DHT22;20784;51.332;12.410;2023-11-18T13:25:37;9.80;99.90
34542;DHT22;20784;51.332;12.410;2023-11-18T13:28:10;9.70;99.90
34542;DHT22;20784;51.332;12.410;2023-11-18T13:30:41;9.60;99.90
34542;DHT22;20784;51.332;12.410;2023-11-18T13:33:08;9.50;99.90
34542;DHT22;20784;51.332;12.410;2023-11-18T13:35:35;9.30;99.90
34542;DHT22;20784;51.332;12.410;2023-11-18T13:38:01;9.30;99.90
34542;DHT22;20784;51.332;12.410;2023-11-18T13:40:45;9.30;99.90
34542;DHT22;20784;51.332;12.410;2023-11-18T13:43:20;9.30;99.90
34542;DHT22;20784;51.332;12.410;2023-11-18T13:45:52;9.20;99.90
34542;DHT22;20784;51.332;12.410;2023-11-18T13:48:24;9.10;99.90
34542;DHT22;20784;51.332;12.410;2023-11-18T13:50:52;9.10;99.90
34542;DHT22;20784;51.332;12.410;2023-11-18T13:53:19;9.10;99.90
34542;DHT22;20784;51.332;12.410;2023-11-18T13:55:45;9.10;99.90
34542;DHT22;20784;51.332;12.410;2023-11-18T13:58:16;9.10;99.90
34542;DHT22;20784;51.332;12.410;2023-11-18T14:00:48;9.10;99.90
34542;DHT22;20784;51.332;12.410;2023-11-18T14:03:14;8.90;99.90
34542;DHT22;20784;51.332;12.410;2023-11-18T14:05:41;8.90;99.90
34542;DHT22;20784;51.332;12.410;2023-11-18T14:08:08;8.90;99.90
34542;DHT22;20784;51.332;12.410;2023-11-18T14:10:35;8.90;99.90
34542;DHT22;20784;51.332;12.410;2023-11-18T14:13:07;8.90;99.90
34542;DHT22;20784;51.332;12.410;2023-11-18T14:15:37;8.80;99.90
34542;DHT22;20784;51.332;12.410;2023-11-18T14:18:04;8.80;99.90
34542;DHT22;20784;51.332;12.410;2023-11-18T14:20:32;8.70;99.90
34542;DHT22;20784;51.332;12.410;2023-11-18T14:23:01;8.80;99.90
34542;DHT22;20784;51.332;12.410;2023-11-18T14:25:30;8.90;99.90
34542;DHT22;20784;51.332;12.410;2023-11-18T14:27:59;8.60;99.90
34542;DHT22;20784;51.332;12.410;2023-11-18T14:30:28;8.70;99.90
34542;DHT22;20784;51.332;12.410;2023-11-18T14:32:56;8.80;99.90
34542;DHT22;20784;51.332;12.410;2023-11-18T14:35:22;8.60;99.90
34542;DHT22;20784;51.332;12.410;2023-11-18T14:37:48;8.60;99.90
34542;DHT22;20784;51.332;12.410;2023-11-18T14:40:14;8.60;99.90
34542;DHT22;20784;51.332;12.410;2023-11-18T14:42:45;8.50;99.90
34542;DHT22;20784;51.332;12.410;2023-11-18T14:45:12;8.50;99.90
34542;DHT22;20784;51.332;12.410;2023-11-18T14:47:41;8.40;99.90
34542;DHT22;20784;51.332;12.410;2023-11-18T14:50:10;8.30;99.90
34542;DHT22;20784;51.332;12.410;2023-11-18T14:52:47;8.30;99.90
34542;DHT22;20784;51.332;12.410;2023-11-18T14:55:16;8.30;99.90
34542;DHT22;20784;51.332;12.410;2023-11-18T14:57:43;8.20;99.90
34542;DHT22;20784;51.332;12.410;2023-11-18T15:00:11;8.10;99.90
34542;DHT22;20784;51.332;12.410;2023-11-18T15:02:48;8.00;99.90
34542;DHT22;20784;51.332;12.410;2023-11-18T15:05:17;8.10;99.90
34542;DHT22;20784;51.332;12.410;2023-11-18T15:07:50;8.00;99.90
34542;DHT22;20784;51.332;12.410;2023-11-18T15:10:20;8.00;99.90
34542;DHT22;20784;51.332;12.410;2023-11-18T15:12:50;7.90;99.90
34542;DHT22;20784;51.332;12.410;2023-11-18T15:15:23;7.90;99.90
34542;DHT22;20784;51.332;12.410;2023-11-18T15:18:00;7.80;99.90
34542;DHT22;20784;51.332;12.410;2023-11-18T15:20:29;7.80;99.90
34542;DHT22;20784;51.332;12.410;2023-11-18T15:22:57;7.80;99.90
34542;DHT22;20784;51.332;12.410;2023-11-18T15:25:23;7.80;99.90
34542;DHT22;20784;51.332;12.410;2023-11-18T15:27:49;7.70;99.90
34542;DHT22;20784;51.332;12.410;2023-11-18T15:30:15;7.70;99.90
34542;DHT22;20784;51.332;12.410;2023-11-18T15:32:45;7.70;99.90
34542;DHT22;20784;51.332;12.410;2023-11-18T15:35:12;7.70;99.90
34542;DHT22;20784;51.332;12.410;2023-11-18T15:37:42;7.70;99.90
34542;DHT22;20784;51.332;12.410;2023-11-18T15:40:14;7.70;99.90
34542;DHT22;20784;51.332;12.410;2023-11-18T15:42:45;7.60;99.90
34542;DHT22;20784;51.332;12.410;2023-11-18T15:45:21;7.60;99.90
34542;DHT22;20784;51.332;12.410;2023-11-18T15:47:51;7.50;99.90
34542;DHT22;20784;51.332;12.410;2023-11-18T15:50:17;7.50;99.90
34542;DHT22;20784;51.332;12.410;2023-11-18T15:52:50;7.60;99.90
34542;DHT22;20784;51.332;12.410;2023-11-18T15:55:19;7.50;99.90
34542;DHT22;20784;51.332;12.410;2023-11-18T15:57:48;7.50;99.90
34542;DHT22;20784;51.332;12.410;2023-11-18T16:00:18;7.50;99.90
34542;DHT22;20784;51.332;12.410;2023-11-18T16:02:55;7.40;99.90
34542;DHT22;20784;51.332;12.410;2023-11-18T16:05:24;7.40;99.90
34542;DHT22;20784;51.332;12.410;2023-11-18T16:07:51;7.40;99.90
34542;DHT22;20784;51.332;12.410;2023-11-18T16:10:17;7.30;99.90
34542;DHT22;20784;51.332;12.410;2023-11-18T16:12:45;7.30;99.90
34542;DHT22;20784;51.332;12.410;2023-11-18T16:15:14;7.30;99.90
34542;DHT22;20784;51.332;12.410;2023-11-18T16:17:40;7.20;99.90
34542;DHT22;20784;51.332;12.410;2023-11-18T16:20:09;7.20;99.90
34542;DHT22;20784;51.332;12.410;2023-11-18T16:22:35;7.10;99.90
34542;DHT22;20784;51.332;12.410;2023-11-18T16:25:01;7.00;99.90
34542;DHT22;20784;51.332;12.410;2023-11-18T16:27:32;7.00;99.90
34542;DHT22;20784;51.332;12.410;2023-11-18T16:30:03;7.00;99.90
34542;DHT22;20784;51.332;12.410;2023-11-18T16:32:29;7.00;99.90
34542;DHT22;20784;51.332;12.410;2023-11-18T16:34:58;7.00;99.90
34542;DHT22;20784;51.332;12.410;2023-11-18T16:37:23;7.00;99.90
34542;DHT22;20784;51.332;12.410;2023-11-18T16:39:52;7.10;99.90
34542;DHT22;20784;51.332;12.410;2023-11-18T16:42:17;7.10;99.90
34542;DHT22;20784;51.332;12.410;2023-11-18T16:44:44;7.00;99.90
34542;DHT22;20784;51.332;12.410;2023-11-18T16:47:10;7.00;99.90